sensor_id;sensor_type;location;lat;lon;timestamp;P1;durP1;ratioP1;P2;durP2;ratioP2
9459;SDS011;4768;42.664;23.240;2022-09-09T00:00:36;9.63;;;8.37;;
9459;SDS011;4768;42.664;23.240;2022-09-09T00:03:08;12.13;;;8.03;;
9459;SDS011;4768;42.664;23.240;2022-09-09T00:05:44;8.60;;;7.80;;
9459;SDS011;4768;42.664;23.240;2022-09-09T00:08:19;8.33;;;7.50;;
9459;SDS011;4768;42.664;23.240;2022-09-09T00:10:48;9.90;;;7.87;;
9459;SDS011;4768;42.664;23.240;2022-09-09T00:13:22;9.33;;;8.30;;
9459;SDS011;4768;42.664;23.240;2022-09-09T00:15:55;11.80;;;8.73;;
9459;SDS011;4768;42.664;23.240;2022-09-09T00:18:26;9.27;;;8.37;;
9459;SDS011;4768;42.664;23.240;2022-09-09T00:21:01;9.50;;;8.40;;
9459;SDS011;4768;42.664;23.240;2022-09-09T00:23:33;9.53;;;8.33;;
9459;SDS011;4768;42.664;23.240;2022-09-09T00:26:05;8.67;;;7.83;;
9459;SDS011;4768;42.664;23.240;2022-09-09T00:28:41;9.70;;;8.70;;
9459;SDS011;4768;42.664;23.240;2022-09-09T00:31:16;12.67;;;8.47;;
9459;SDS011;4768;42.664;23.240;2022-09-09T00:33:47;9.03;;;8.03;;
9459;SDS011;4768;42.664;23.240;2022-09-09T00:36:18;9.43;;;8.50;;
9459;SDS011;4768;42.664;23.240;2022-09-09T00:38:48;10.27;;;8.87;;
9459;SDS011;4768;42.664;23.240;2022-09-09T00:41:19;8.53;;;7.60;;
9459;SDS011;4768;42.664;23.240;2022-09-09T00:43:55;9.07;;;8.00;;
9459;SDS011;4768;42.664;23.240;2022-09-09T00:46:37;8.77;;;7.87;;
9459;SDS011;4768;42.664;23.240;2022-09-09T00:49:15;12.07;;;8.17;;
9459;SDS011;4768;42.664;23.240;2022-09-09T00:52:01;10.17;;;8.17;;
9459;SDS011;4768;42.664;23.240;2022-09-09T00:54:38;14.13;;;8.77;;
9459;SDS011;4768;42.664;23.240;2022-09-09T00:57:18;9.53;;;8.30;;
9459;SDS011;4768;42.664;23.240;2022-09-09T00:59:55;11.23;;;8.60;;
9459;SDS011;4768;42.664;23.240;2022-09-09T01:02:30;9.27;;;7.97;;
9459;SDS011;4768;42.664;23.240;2022-09-09T01:05:05;10.30;;;8.40;;
9459;SDS011;4768;42.664;23.240;2022-09-09T01:07:39;10.40;;;8.23;;
9459;SDS011;4768;42.664;23.240;2022-09-09T01:10:15;11.70;;;8.47;;
9459;SDS011;4768;42.664;23.240;2022-09-09T01:12:52;10.43;;;7.97;;
9459;SDS011;4768;42.664;23.240;2022-09-09T01:15:24;8.97;;;8.03;;
9459;SDS011;4768;42.664;23.240;2022-09-09T01:17:59;12.30;;;8.20;;
9459;SDS011;4768;42.664;23.240;2022-09-09T01:20:31;9.53;;;7.43;;
9459;SDS011;4768;42.664;23.240;2022-09-09T01:23:21;8.97;;;8.10;;
9459;SDS011;4768;42.664;23.240;2022-09-09T01:26:14;8.70;;;7.53;;
9459;SDS011;4768;42.664;23.240;2022-09-09T01:28:45;10.83;;;8.50;;
9459;SDS011;4768;42.664;23.240;2022-09-09T01:31:15;10.03;;;8.50;;
9459;SDS011;4768;42.664;23.240;2022-09-09T01:33:44;14.10;;;8.70;;
9459;SDS011;4768;42.664;23.240;2022-09-09T01:36:12;12.80;;;8.27;;
9459;SDS011;4768;42.664;23.240;2022-09-09T01:38:44;11.13;;;8.77;;
9459;SDS011;4768;42.664;23.240;2022-09-09T01:41:10;11.43;;;8.80;;
9459;SDS011;4768;42.664;23.240;2022-09-09T01:43:38;9.53;;;8.53;;
9459;SDS011;4768;42.664;23.240;2022-09-09T01:46:05;9.70;;;8.70;;
9459;SDS011;4768;42.664;23.240;2022-09-09T01:48:32;9.47;;;8.43;;
9459;SDS011;4768;42.664;23.240;2022-09-09T01:50:59;10.03;;;8.77;;
9459;SDS011;4768;42.664;23.240;2022-09-09T01:53:26;11.90;;;8.33;;
9459;SDS011;4768;42.664;23.240;2022-09-09T01:55:57;9.87;;;8.87;;
9459;SDS011;4768;42.664;23.240;2022-09-09T01:58:34;10.53;;;8.63;;
9459;SDS011;4768;42.664;23.240;2022-09-09T02:01:12;9.83;;;8.83;;
9459;SDS011;4768;42.664;23.240;2022-09-09T02:03:50;11.13;;;9.27;;
9459;SDS011;4768;42.664;23.240;2022-09-09T02:06:24;10.80;;;9.30;;
9459;SDS011;4768;42.664;23.240;2022-09-09T02:08:55;9.73;;;8.63;;
9459;SDS011;4768;42.664;23.240;2022-09-09T02:11:25;11.03;;;8.90;;
9459;SDS011;4768;42.664;23.240;2022-09-09T02:13:57;11.47;;;9.30;;
9459;SDS011;4768;42.664;23.240;2022-09-09T02:16:30;11.77;;;9.47;;
9459;SDS011;4768;42.664;23.240;2022-09-09T02:19:01;12.03;;;9.20;;
9459;SDS011;4768;42.664;23.240;2022-09-09T02:21:34;9.80;;;8.80;;
9459;SDS011;4768;42.664;23.240;2022-09-09T02:24:02;12.87;;;8.37;;
9459;SDS011;4768;42.664;23.240;2022-09-09T02:26:33;10.37;;;9.37;;
9459;SDS011;4768;42.664;23.240;2022-09-09T02:29:04;10.57;;;9.07;;
9459;SDS011;4768;42.664;23.240;2022-09-09T02:31:34;11.30;;;9.57;;
9459;SDS011;4768;42.664;23.240;2022-09-09T02:34:03;11.67;;;9.40;;
9459;SDS011;4768;42.664;23.240;2022-09-09T02:36:34;10.30;;;9.20;;
9459;SDS011;4768;42.664;23.240;2022-09-09T02:39:04;13.00;;;9.70;;
9459;SDS011;4768;42.664;23.240;2022-09-09T02:41:35;10.27;;;8.33;;
9459;SDS011;4768;42.664;23.240;2022-09-09T02:44:08;11.40;;;9.57;;
9459;SDS011;4768;42.664;23.240;2022-09-09T02:46:43;11.23;;;8.53;;
9459;SDS011;4768;42.664;23.240;2022-09-09T02:49:38;9.83;;;8.67;;
9459;SDS011;4768;42.664;23.240;2022-09-09T02:52:13;11.17;;;10.00;;
9459;SDS011;4768;42.664;23.240;2022-09-09T02:54:41;10.20;;;9.03;;
9459;SDS011;4768;42.664;23.240;2022-09-09T02:57:10;12.87;;;9.47;;
9459;SDS011;4768;42.664;23.240;2022-09-09T02:59:40;9.90;;;9.00;;
9459;SDS011;4768;42.664;23.240;2022-09-09T03:02:09;9.97;;;9.07;;
9459;SDS011;4768;42.664;23.240;2022-09-09T03:04:36;16.20;;;9.80;;
9459;SDS011;4768;42.664;23.240;2022-09-09T03:07:03;12.63;;;9.40;;
9459;SDS011;4768;42.664;23.240;2022-09-09T03:09:30;12.43;;;9.13;;
9459;SDS011;4768;42.664;23.240;2022-09-09T03:11:58;10.93;;;9.63;;
9459;SDS011;4768;42.664;23.240;2022-09-09T03:14:25;10.83;;;9.50;;
9459;SDS011;4768;42.664;23.240;2022-09-09T03:16:54;10.23;;;8.97;;
9459;SDS011;4768;42.664;23.240;2022-09-09T03:19:21;10.37;;;9.30;;
9459;SDS011;4768;42.664;23.240;2022-09-09T03:21:48;9.73;;;8.73;;
9459;SDS011;4768;42.664;23.240;2022-09-09T03:24:15;10.63;;;8.93;;
9459;SDS011;4768;42.664;23.240;2022-09-09T03:26:42;13.43;;;8.80;;
9459;SDS011;4768;42.664;23.240;2022-09-09T03:29:10;12.70;;;9.50;;
9459;SDS011;4768;42.664;23.240;2022-09-09T03:31:37;12.67;;;8.97;;
9459;SDS011;4768;42.664;23.240;2022-09-09T03:34:05;12.67;;;9.40;;
9459;SDS011;4768;42.664;23.240;2022-09-09T03:36:32;11.63;;;8.70;;
9459;SDS011;4768;42.664;23.240;2022-09-09T03:38:59;10.13;;;8.93;;
9459;SDS011;4768;42.664;23.240;2022-09-09T03:41:28;10.57;;;9.10;;
9459;SDS011;4768;42.664;23.240;2022-09-09T03:43:55;9.77;;;8.27;;
9459;SDS011;4768;42.664;23.240;2022-09-09T03:46:22;9.77;;;8.70;;
9459;SDS011;4768;42.664;23.240;2022-09-09T03:48:50;10.50;;;9.13;;
9459;SDS011;4768;42.664;23.240;2022-09-09T03:51:19;11.07;;;9.63;;
9459;SDS011;4768;42.664;23.240;2022-09-09T03:53:47;11.77;;;10.00;;
9459;SDS011;4768;42.664;23.240;2022-09-09T03:56:14;11.53;;;9.63;;
9459;SDS011;4768;42.664;23.240;2022-09-09T03:58:40;18.63;;;10.30;;
9459;SDS011;4768;42.664;23.240;2022-09-09T04:01:16;10.97;;;9.83;;
9459;SDS011;4768;42.664;23.240;2022-09-09T04:03:44;13.47;;;9.97;;
9459;SDS011;4768;42.664;23.240;2022-09-09T04:06:11;15.07;;;9.97;;
9459;SDS011;4768;42.664;23.240;2022-09-09T04:08:41;10.90;;;9.80;;
9459;SDS011;4768;42.664;23.240;2022-09-09T04:11:08;11.03;;;9.70;;
9459;SDS011;4768;42.664;23.240;2022-09-09T04:13:36;13.80;;;9.07;;
9459;SDS011;4768;42.664;23.240;2022-09-09T04:16:04;13.47;;;9.33;;
9459;SDS011;4768;42.664;23.240;2022-09-09T04:18:31;11.93;;;9.80;;
9459;SDS011;4768;42.664;23.240;2022-09-09T04:20:59;9.47;;;8.57;;
9459;SDS011;4768;42.664;23.240;2022-09-09T04:23:26;11.03;;;9.73;;
9459;SDS011;4768;42.664;23.240;2022-09-09T04:25:57;14.73;;;8.53;;
9459;SDS011;4768;42.664;23.240;2022-09-09T04:28:25;13.33;;;10.53;;
9459;SDS011;4768;42.664;23.240;2022-09-09T04:30:54;12.43;;;10.00;;
9459;SDS011;4768;42.664;23.240;2022-09-09T04:33:23;13.33;;;9.10;;
9459;SDS011;4768;42.664;23.240;2022-09-09T04:35:52;10.20;;;9.20;;
9459;SDS011;4768;42.664;23.240;2022-09-09T04:38:20;13.77;;;9.67;;
9459;SDS011;4768;42.664;23.240;2022-09-09T04:40:48;11.00;;;9.77;;
9459;SDS011;4768;42.664;23.240;2022-09-09T04:43:18;10.70;;;9.50;;
9459;SDS011;4768;42.664;23.240;2022-09-09T04:45:47;10.60;;;9.50;;
9459;SDS011;4768;42.664;23.240;2022-09-09T04:48:14;13.63;;;9.53;;
9459;SDS011;4768;42.664;23.240;2022-09-09T04:50:41;15.03;;;9.50;;
9459;SDS011;4768;42.664;23.240;2022-09-09T04:53:08;14.77;;;9.90;;
9459;SDS011;4768;42.664;23.240;2022-09-09T04:55:34;11.03;;;8.83;;
9459;SDS011;4768;42.664;23.240;2022-09-09T04:58:02;11.00;;;8.73;;
9459;SDS011;4768;42.664;23.240;2022-09-09T05:00:31;10.40;;;9.27;;
9459;SDS011;4768;42.664;23.240;2022-09-09T05:03:02;12.90;;;9.80;;
9459;SDS011;4768;42.664;23.240;2022-09-09T05:05:30;11.20;;;10.00;;
9459;SDS011;4768;42.664;23.240;2022-09-09T05:08:00;12.00;;;10.80;;
9459;SDS011;4768;42.664;23.240;2022-09-09T05:10:28;11.30;;;9.50;;
9459;SDS011;4768;42.664;23.240;2022-09-09T05:12:54;10.30;;;9.23;;
9459;SDS011;4768;42.664;23.240;2022-09-09T05:15:21;15.13;;;10.23;;
9459;SDS011;4768;42.664;23.240;2022-09-09T05:17:50;13.90;;;11.30;;
9459;SDS011;4768;42.664;23.240;2022-09-09T05:20:17;13.90;;;11.17;;
9459;SDS011;4768;42.664;23.240;2022-09-09T05:22:44;12.10;;;10.80;;
9459;SDS011;4768;42.664;23.240;2022-09-09T05:25:11;13.27;;;10.90;;
9459;SDS011;4768;42.664;23.240;2022-09-09T05:27:37;25.47;;;12.60;;
9459;SDS011;4768;42.664;23.240;2022-09-09T05:30:04;15.83;;;11.63;;
9459;SDS011;4768;42.664;23.240;2022-09-09T05:32:32;11.90;;;10.53;;
9459;SDS011;4768;42.664;23.240;2022-09-09T05:35:00;15.03;;;11.33;;
9459;SDS011;4768;42.664;23.240;2022-09-09T05:37:27;12.37;;;11.03;;
9459;SDS011;4768;42.664;23.240;2022-09-09T05:39:55;15.43;;;10.70;;
9459;SDS011;4768;42.664;23.240;2022-09-09T05:42:22;15.67;;;10.47;;
9459;SDS011;4768;42.664;23.240;2022-09-09T05:44:49;14.97;;;11.23;;
9459;SDS011;4768;42.664;23.240;2022-09-09T05:47:19;15.83;;;11.00;;
9459;SDS011;4768;42.664;23.240;2022-09-09T05:49:46;15.07;;;10.60;;
9459;SDS011;4768;42.664;23.240;2022-09-09T05:52:14;13.97;;;10.57;;
9459;SDS011;4768;42.664;23.240;2022-09-09T05:54:41;11.83;;;10.40;;
9459;SDS011;4768;42.664;23.240;2022-09-09T05:57:08;14.83;;;10.87;;
9459;SDS011;4768;42.664;23.240;2022-09-09T05:59:35;11.80;;;10.17;;
9459;SDS011;4768;42.664;23.240;2022-09-09T06:02:02;15.40;;;9.87;;
9459;SDS011;4768;42.664;23.240;2022-09-09T06:04:29;15.87;;;10.70;;
9459;SDS011;4768;42.664;23.240;2022-09-09T06:06:56;13.57;;;10.00;;
9459;SDS011;4768;42.664;23.240;2022-09-09T06:09:24;11.03;;;8.30;;
9459;SDS011;4768;42.664;23.240;2022-09-09T06:11:51;9.40;;;8.50;;
9459;SDS011;4768;42.664;23.240;2022-09-09T06:14:19;14.17;;;8.83;;
9459;SDS011;4768;42.664;23.240;2022-09-09T06:16:46;17.00;;;8.70;;
9459;SDS011;4768;42.664;23.240;2022-09-09T06:19:13;13.40;;;7.33;;
9459;SDS011;4768;42.664;23.240;2022-09-09T06:21:40;9.23;;;7.83;;
9459;SDS011;4768;42.664;23.240;2022-09-09T06:24:07;9.88;;;8.43;;
9459;SDS011;4768;42.664;23.240;2022-09-09T06:26:36;12.43;;;9.00;;
9459;SDS011;4768;42.664;23.240;2022-09-09T06:29:06;11.18;;;8.88;;
9459;SDS011;4768;42.664;23.240;2022-09-09T06:31:33;14.48;;;9.15;;
9459;SDS011;4768;42.664;23.240;2022-09-09T06:34:03;14.88;;;9.18;;
9459;SDS011;4768;42.664;23.240;2022-09-09T06:36:32;15.77;;;9.13;;
9459;SDS011;4768;42.664;23.240;2022-09-09T06:39:00;16.13;;;9.98;;
9459;SDS011;4768;42.664;23.240;2022-09-09T06:41:27;12.40;;;9.68;;
9459;SDS011;4768;42.664;23.240;2022-09-09T06:43:57;15.38;;;10.07;;
9459;SDS011;4768;42.664;23.240;2022-09-09T06:46:25;18.25;;;10.30;;
9459;SDS011;4768;42.664;23.240;2022-09-09T06:48:53;14.93;;;9.77;;
9459;SDS011;4768;42.664;23.240;2022-09-09T06:51:22;13.88;;;9.20;;
9459;SDS011;4768;42.664;23.240;2022-09-09T06:53:51;11.25;;;9.05;;
9459;SDS011;4768;42.664;23.240;2022-09-09T06:56:20;18.60;;;10.02;;
9459;SDS011;4768;42.664;23.240;2022-09-09T06:58:48;13.90;;;8.43;;
9459;SDS011;4768;42.664;23.240;2022-09-09T07:01:18;11.68;;;8.02;;
9459;SDS011;4768;42.664;23.240;2022-09-09T07:03:47;10.13;;;8.98;;
9459;SDS011;4768;42.664;23.240;2022-09-09T07:06:16;10.77;;;8.68;;
9459;SDS011;4768;42.664;23.240;2022-09-09T07:08:47;15.85;;;9.07;;
9459;SDS011;4768;42.664;23.240;2022-09-09T07:11:15;12.35;;;8.98;;
9459;SDS011;4768;42.664;23.240;2022-09-09T07:13:42;12.23;;;9.20;;
9459;SDS011;4768;42.664;23.240;2022-09-09T07:16:09;11.80;;;9.50;;
9459;SDS011;4768;42.664;23.240;2022-09-09T07:18:39;14.18;;;9.75;;
9459;SDS011;4768;42.664;23.240;2022-09-09T07:21:06;21.13;;;10.23;;
9459;SDS011;4768;42.664;23.240;2022-09-09T07:23:35;18.40;;;10.88;;
9459;SDS011;4768;42.664;23.240;2022-09-09T07:26:01;11.80;;;10.30;;
9459;SDS011;4768;42.664;23.240;2022-09-09T07:28:29;13.98;;;10.02;;
9459;SDS011;4768;42.664;23.240;2022-09-09T07:30:56;11.40;;;9.38;;
9459;SDS011;4768;42.664;23.240;2022-09-09T07:33:24;16.30;;;10.57;;
9459;SDS011;4768;42.664;23.240;2022-09-09T07:35:53;12.38;;;9.70;;
9459;SDS011;4768;42.664;23.240;2022-09-09T07:38:20;12.18;;;9.27;;
9459;SDS011;4768;42.664;23.240;2022-09-09T07:40:47;14.95;;;10.48;;
9459;SDS011;4768;42.664;23.240;2022-09-09T07:43:14;14.35;;;10.50;;
9459;SDS011;4768;42.664;23.240;2022-09-09T07:45:42;11.05;;;10.05;;
9459;SDS011;4768;42.664;23.240;2022-09-09T07:48:09;18.63;;;9.70;;
9459;SDS011;4768;42.664;23.240;2022-09-09T07:50:36;20.92;;;9.55;;
9459;SDS011;4768;42.664;23.240;2022-09-09T07:53:04;14.32;;;9.05;;
9459;SDS011;4768;42.664;23.240;2022-09-09T07:55:31;12.32;;;10.00;;
9459;SDS011;4768;42.664;23.240;2022-09-09T07:57:58;12.80;;;9.20;;
9459;SDS011;4768;42.664;23.240;2022-09-09T08:00:24;14.43;;;10.32;;
9459;SDS011;4768;42.664;23.240;2022-09-09T08:02:53;13.75;;;10.15;;
9459;SDS011;4768;42.664;23.240;2022-09-09T08:05:20;16.35;;;10.07;;
9459;SDS011;4768;42.664;23.240;2022-09-09T08:07:47;13.30;;;9.82;;
9459;SDS011;4768;42.664;23.240;2022-09-09T08:10:15;14.88;;;10.82;;
9459;SDS011;4768;42.664;23.240;2022-09-09T08:12:43;20.35;;;11.32;;
9459;SDS011;4768;42.664;23.240;2022-09-09T08:15:10;13.55;;;10.15;;
9459;SDS011;4768;42.664;23.240;2022-09-09T08:17:37;15.40;;;9.98;;
9459;SDS011;4768;42.664;23.240;2022-09-09T08:20:04;13.82;;;10.07;;
9459;SDS011;4768;42.664;23.240;2022-09-09T08:22:31;14.93;;;10.20;;
9459;SDS011;4768;42.664;23.240;2022-09-09T08:24:59;11.98;;;8.93;;
9459;SDS011;4768;42.664;23.240;2022-09-09T08:27:28;16.75;;;9.65;;
9459;SDS011;4768;42.664;23.240;2022-09-09T08:29:55;19.02;;;10.77;;
9459;SDS011;4768;42.664;23.240;2022-09-09T08:32:22;12.98;;;10.13;;
9459;SDS011;4768;42.664;23.240;2022-09-09T08:34:49;13.80;;;10.05;;
9459;SDS011;4768;42.664;23.240;2022-09-09T08:37:16;11.35;;;10.02;;
9459;SDS011;4768;42.664;23.240;2022-09-09T08:39:44;13.18;;;9.57;;
9459;SDS011;4768;42.664;23.240;2022-09-09T08:42:17;19.70;;;11.00;;
9459;SDS011;4768;42.664;23.240;2022-09-09T08:44:57;13.40;;;9.88;;
9459;SDS011;4768;42.664;23.240;2022-09-09T08:47:38;17.65;;;10.15;;
9459;SDS011;4768;42.664;23.240;2022-09-09T08:50:13;11.05;;;9.52;;
9459;SDS011;4768;42.664;23.240;2022-09-09T08:52:49;11.52;;;8.93;;
9459;SDS011;4768;42.664;23.240;2022-09-09T08:55:22;15.02;;;9.98;;
9459;SDS011;4768;42.664;23.240;2022-09-09T08:57:54;14.30;;;9.75;;
9459;SDS011;4768;42.664;23.240;2022-09-09T09:00:25;11.65;;;9.27;;
9459;SDS011;4768;42.664;23.240;2022-09-09T09:03:00;17.10;;;9.75;;
9459;SDS011;4768;42.664;23.240;2022-09-09T09:05:36;16.15;;;8.65;;
9459;SDS011;4768;42.664;23.240;2022-09-09T09:08:08;11.05;;;8.68;;
9459;SDS011;4768;42.664;23.240;2022-09-09T09:10:45;13.23;;;7.95;;
9459;SDS011;4768;42.664;23.240;2022-09-09T09:13:15;18.17;;;7.97;;
9459;SDS011;4768;42.664;23.240;2022-09-09T09:15:48;13.55;;;8.52;;
9459;SDS011;4768;42.664;23.240;2022-09-09T09:18:19;16.63;;;9.13;;
9459;SDS011;4768;42.664;23.240;2022-09-09T09:20:49;10.75;;;8.30;;
9459;SDS011;4768;42.664;23.240;2022-09-09T09:23:20;16.83;;;8.55;;
9459;SDS011;4768;42.664;23.240;2022-09-09T09:25:48;11.63;;;7.75;;
9459;SDS011;4768;42.664;23.240;2022-09-09T09:28:20;13.15;;;8.18;;
9459;SDS011;4768;42.664;23.240;2022-09-09T09:30:53;10.82;;;7.85;;
9459;SDS011;4768;42.664;23.240;2022-09-09T09:33:25;10.55;;;7.95;;
9459;SDS011;4768;42.664;23.240;2022-09-09T09:35:56;10.60;;;7.28;;
9459;SDS011;4768;42.664;23.240;2022-09-09T09:38:25;10.45;;;7.55;;
9459;SDS011;4768;42.664;23.240;2022-09-09T09:40:53;8.55;;;7.10;;
9459;SDS011;4768;42.664;23.240;2022-09-09T09:43:24;11.10;;;6.70;;
9459;SDS011;4768;42.664;23.240;2022-09-09T09:45:55;10.45;;;6.90;;
9459;SDS011;4768;42.664;23.240;2022-09-09T09:48:23;13.32;;;7.40;;
9459;SDS011;4768;42.664;23.240;2022-09-09T09:50:51;14.55;;;6.95;;
9459;SDS011;4768;42.664;23.240;2022-09-09T09:53:21;8.55;;;7.05;;
9459;SDS011;4768;42.664;23.240;2022-09-09T09:55:52;10.77;;;6.78;;
9459;SDS011;4768;42.664;23.240;2022-09-09T09:58:22;8.95;;;6.80;;
9459;SDS011;4768;42.664;23.240;2022-09-09T10:00:50;9.70;;;7.13;;
9459;SDS011;4768;42.664;23.240;2022-09-09T10:03:21;9.90;;;6.95;;
9459;SDS011;4768;42.664;23.240;2022-09-09T10:05:51;10.98;;;6.90;;
9459;SDS011;4768;42.664;23.240;2022-09-09T10:08:18;13.18;;;7.40;;
9459;SDS011;4768;42.664;23.240;2022-09-09T10:10:55;8.48;;;6.82;;
9459;SDS011;4768;42.664;23.240;2022-09-09T10:13:43;9.50;;;6.72;;
9459;SDS011;4768;42.664;23.240;2022-09-09T10:16:25;10.48;;;6.90;;
9459;SDS011;4768;42.664;23.240;2022-09-09T10:19:05;9.95;;;6.38;;
9459;SDS011;4768;42.664;23.240;2022-09-09T10:25:03;12.63;;;6.75;;
9459;SDS011;4768;42.664;23.240;2022-09-09T10:27:44;13.52;;;7.20;;
9459;SDS011;4768;42.664;23.240;2022-09-09T10:30:21;14.27;;;7.30;;
9459;SDS011;4768;42.664;23.240;2022-09-09T10:32:54;12.90;;;6.32;;
9459;SDS011;4768;42.664;23.240;2022-09-09T10:35:33;11.85;;;6.38;;
9459;SDS011;4768;42.664;23.240;2022-09-09T10:38:11;9.85;;;6.43;;
9459;SDS011;4768;42.664;23.240;2022-09-09T10:40:44;11.75;;;6.72;;
9459;SDS011;4768;42.664;23.240;2022-09-09T10:43:30;13.38;;;7.28;;
9459;SDS011;4768;42.664;23.240;2022-09-09T10:46:03;10.63;;;7.00;;
9459;SDS011;4768;42.664;23.240;2022-09-09T10:48:41;14.50;;;6.68;;
9459;SDS011;4768;42.664;23.240;2022-09-09T10:51:25;12.57;;;7.22;;
9459;SDS011;4768;42.664;23.240;2022-09-09T10:54:12;13.82;;;7.03;;
9459;SDS011;4768;42.664;23.240;2022-09-09T10:56:52;10.18;;;6.82;;
9459;SDS011;4768;42.664;23.240;2022-09-09T10:59:23;9.07;;;6.95;;
9459;SDS011;4768;42.664;23.240;2022-09-09T11:01:53;11.70;;;7.05;;
9459;SDS011;4768;42.664;23.240;2022-09-09T11:04:25;16.90;;;7.78;;
9459;SDS011;4768;42.664;23.240;2022-09-09T11:06:58;12.52;;;7.10;;
9459;SDS011;4768;42.664;23.240;2022-09-09T11:09:31;11.38;;;6.60;;
9459;SDS011;4768;42.664;23.240;2022-09-09T11:12:04;11.82;;;6.45;;
9459;SDS011;4768;42.664;23.240;2022-09-09T11:14:39;9.85;;;6.20;;
9459;SDS011;4768;42.664;23.240;2022-09-09T11:17:10;16.38;;;6.82;;
9459;SDS011;4768;42.664;23.240;2022-09-09T11:19:43;10.95;;;6.75;;
9459;SDS011;4768;42.664;23.240;2022-09-09T11:22:15;7.80;;;6.60;;
9459;SDS011;4768;42.664;23.240;2022-09-09T11:24:47;10.30;;;7.75;;
9459;SDS011;4768;42.664;23.240;2022-09-09T11:27:18;15.20;;;7.07;;
9459;SDS011;4768;42.664;23.240;2022-09-09T11:33:04;13.02;;;6.25;;
9459;SDS011;4768;42.664;23.240;2022-09-09T11:36:11;9.27;;;7.00;;
9459;SDS011;4768;42.664;23.240;2022-09-09T11:38:52;7.60;;;6.10;;
9459;SDS011;4768;42.664;23.240;2022-09-09T11:41:32;10.52;;;6.63;;
9459;SDS011;4768;42.664;23.240;2022-09-09T11:44:08;9.88;;;6.40;;
9459;SDS011;4768;42.664;23.240;2022-09-09T11:46:37;10.30;;;6.65;;
9459;SDS011;4768;42.664;23.240;2022-09-09T11:49:21;9.75;;;6.55;;
9459;SDS011;4768;42.664;23.240;2022-09-09T11:51:53;7.72;;;6.43;;
9459;SDS011;4768;42.664;23.240;2022-09-09T11:54:31;11.10;;;7.10;;
9459;SDS011;4768;42.664;23.240;2022-09-09T11:57:15;13.95;;;6.78;;
9459;SDS011;4768;42.664;23.240;2022-09-09T11:59:51;9.50;;;6.53;;
9459;SDS011;4768;42.664;23.240;2022-09-09T12:02:19;8.82;;;5.63;;
9459;SDS011;4768;42.664;23.240;2022-09-09T12:04:54;13.40;;;5.90;;
9459;SDS011;4768;42.664;23.240;2022-09-09T12:07:28;9.75;;;6.28;;
9459;SDS011;4768;42.664;23.240;2022-09-09T12:10:04;13.65;;;6.15;;
9459;SDS011;4768;42.664;23.240;2022-09-09T12:12:46;7.10;;;5.60;;
9459;SDS011;4768;42.664;23.240;2022-09-09T12:15:21;9.80;;;5.78;;
9459;SDS011;4768;42.664;23.240;2022-09-09T12:17:50;11.27;;;5.20;;
9459;SDS011;4768;42.664;23.240;2022-09-09T12:20:19;10.20;;;5.63;;
9459;SDS011;4768;42.664;23.240;2022-09-09T12:22:51;10.07;;;5.10;;
9459;SDS011;4768;42.664;23.240;2022-09-09T12:25:39;10.60;;;4.57;;
9459;SDS011;4768;42.664;23.240;2022-09-09T12:28:18;20.13;;;5.55;;
9459;SDS011;4768;42.664;23.240;2022-09-09T12:30:49;11.98;;;4.82;;
9459;SDS011;4768;42.664;23.240;2022-09-09T12:33:22;12.70;;;4.90;;
9459;SDS011;4768;42.664;23.240;2022-09-09T12:35:50;9.30;;;4.40;;
9459;SDS011;4768;42.664;23.240;2022-09-09T12:38:22;8.10;;;4.47;;
9459;SDS011;4768;42.664;23.240;2022-09-09T12:40:58;9.38;;;4.75;;
9459;SDS011;4768;42.664;23.240;2022-09-09T12:43:26;9.95;;;4.82;;
9459;SDS011;4768;42.664;23.240;2022-09-09T12:45:54;8.23;;;4.50;;
9459;SDS011;4768;42.664;23.240;2022-09-09T12:48:27;11.65;;;5.30;;
9459;SDS011;4768;42.664;23.240;2022-09-09T12:50:58;5.97;;;4.53;;
9459;SDS011;4768;42.664;23.240;2022-09-09T12:53:26;8.65;;;4.53;;
9459;SDS011;4768;42.664;23.240;2022-09-09T12:55:58;9.55;;;4.70;;
9459;SDS011;4768;42.664;23.240;2022-09-09T12:58:27;8.80;;;4.90;;
9459;SDS011;4768;42.664;23.240;2022-09-09T13:00:58;6.63;;;4.95;;
9459;SDS011;4768;42.664;23.240;2022-09-09T13:03:26;5.45;;;4.60;;
9459;SDS011;4768;42.664;23.240;2022-09-09T13:05:56;9.02;;;5.20;;
9459;SDS011;4768;42.664;23.240;2022-09-09T13:08:25;9.82;;;4.63;;
9459;SDS011;4768;42.664;23.240;2022-09-09T13:10:53;6.90;;;4.63;;
9459;SDS011;4768;42.664;23.240;2022-09-09T13:13:25;5.72;;;4.30;;
9459;SDS011;4768;42.664;23.240;2022-09-09T13:15:55;9.63;;;4.55;;
9459;SDS011;4768;42.664;23.240;2022-09-09T13:18:24;7.53;;;4.82;;
9459;SDS011;4768;42.664;23.240;2022-09-09T13:20:55;10.07;;;4.90;;
9459;SDS011;4768;42.664;23.240;2022-09-09T13:23:25;8.48;;;4.55;;
9459;SDS011;4768;42.664;23.240;2022-09-09T13:25:55;11.50;;;4.63;;
9459;SDS011;4768;42.664;23.240;2022-09-09T13:28:25;6.70;;;4.60;;
9459;SDS011;4768;42.664;23.240;2022-09-09T13:30:55;10.88;;;6.40;;
9459;SDS011;4768;42.664;23.240;2022-09-09T13:33:28;14.27;;;6.43;;
9459;SDS011;4768;42.664;23.240;2022-09-09T13:35:57;14.85;;;6.90;;
9459;SDS011;4768;42.664;23.240;2022-09-09T13:38:26;11.02;;;7.32;;
9459;SDS011;4768;42.664;23.240;2022-09-09T13:40:55;13.15;;;7.05;;
9459;SDS011;4768;42.664;23.240;2022-09-09T13:43:28;11.48;;;5.30;;
9459;SDS011;4768;42.664;23.240;2022-09-09T13:45:58;9.55;;;6.55;;
9459;SDS011;4768;42.664;23.240;2022-09-09T13:48:26;11.13;;;6.72;;
9459;SDS011;4768;42.664;23.240;2022-09-09T13:50:58;17.40;;;6.70;;
9459;SDS011;4768;42.664;23.240;2022-09-09T13:53:27;9.25;;;6.63;;
9459;SDS011;4768;42.664;23.240;2022-09-09T13:55:54;12.20;;;6.70;;
9459;SDS011;4768;42.664;23.240;2022-09-09T13:58:22;13.45;;;6.80;;
9459;SDS011;4768;42.664;23.240;2022-09-09T14:00:51;17.27;;;5.95;;
9459;SDS011;4768;42.664;23.240;2022-09-09T14:03:19;11.77;;;5.95;;
9459;SDS011;4768;42.664;23.240;2022-09-09T14:05:46;9.95;;;5.60;;
9459;SDS011;4768;42.664;23.240;2022-09-09T14:08:20;7.82;;;4.53;;
9459;SDS011;4768;42.664;23.240;2022-09-09T14:10:50;9.48;;;4.95;;
9459;SDS011;4768;42.664;23.240;2022-09-09T14:13:17;12.00;;;4.55;;
9459;SDS011;4768;42.664;23.240;2022-09-09T14:15:47;6.88;;;4.38;;
9459;SDS011;4768;42.664;23.240;2022-09-09T14:18:16;6.00;;;5.13;;
9459;SDS011;4768;42.664;23.240;2022-09-09T14:20:43;14.82;;;7.10;;
9459;SDS011;4768;42.664;23.240;2022-09-09T14:23:11;13.90;;;7.38;;
9459;SDS011;4768;42.664;23.240;2022-09-09T14:25:40;9.38;;;6.63;;
9459;SDS011;4768;42.664;23.240;2022-09-09T14:28:09;11.63;;;6.28;;
9459;SDS011;4768;42.664;23.240;2022-09-09T14:30:37;14.38;;;6.70;;
9459;SDS011;4768;42.664;23.240;2022-09-09T14:33:05;14.90;;;6.68;;
9459;SDS011;4768;42.664;23.240;2022-09-09T14:35:33;13.00;;;6.88;;
9459;SDS011;4768;42.664;23.240;2022-09-09T14:38:01;14.13;;;6.63;;
9459;SDS011;4768;42.664;23.240;2022-09-09T14:40:28;13.00;;;6.57;;
9459;SDS011;4768;42.664;23.240;2022-09-09T14:42:55;11.20;;;6.47;;
9459;SDS011;4768;42.664;23.240;2022-09-09T14:45:22;19.85;;;7.07;;
9459;SDS011;4768;42.664;23.240;2022-09-09T14:47:50;16.27;;;6.75;;
9459;SDS011;4768;42.664;23.240;2022-09-09T14:50:17;18.92;;;7.05;;
9459;SDS011;4768;42.664;23.240;2022-09-09T14:52:45;12.82;;;6.95;;
9459;SDS011;4768;42.664;23.240;2022-09-09T14:55:12;11.65;;;6.68;;
9459;SDS011;4768;42.664;23.240;2022-09-09T14:57:40;13.15;;;7.07;;
9459;SDS011;4768;42.664;23.240;2022-09-09T15:00:08;10.10;;;6.75;;
9459;SDS011;4768;42.664;23.240;2022-09-09T15:02:36;14.15;;;7.00;;
9459;SDS011;4768;42.664;23.240;2022-09-09T15:05:05;14.15;;;7.05;;
9459;SDS011;4768;42.664;23.240;2022-09-09T15:07:35;11.35;;;7.50;;
9459;SDS011;4768;42.664;23.240;2022-09-09T15:10:06;11.38;;;6.30;;
9459;SDS011;4768;42.664;23.240;2022-09-09T15:12:39;9.65;;;4.05;;
9459;SDS011;4768;42.664;23.240;2022-09-09T15:15:07;8.02;;;4.45;;